sensor_id;sensor_type;location;lat;lon;timestamp;temperature;humidity
40952;DHT22;26682;51.660;19.338;2023-04-24T00:00:34;10.20;99.90
40952;DHT22;26682;51.660;19.338;2023-04-24T00:03:36;10.20;99.90
40952;DHT22;26682;51.660;19.338;2023-04-24T00:06:21;10.20;99.90
40952;DHT22;26682;51.660;19.338;2023-04-24T00:09:05;10.20;99.90
40952;DHT22;26682;51.660;19.338;2023-04-24T00:11:48;10.20;99.90
40952;DHT22;26682;51.660;19.338;2023-04-24T00:14:31;10.20;99.90
40952;DHT22;26682;51.660;19.338;2023-04-24T00:17:14;10.30;99.90
40952;DHT22;26682;51.660;19.338;2023-04-24T00:19:57;10.40;99.90
40952;DHT22;26682;51.660;19.338;2023-04-24T00:22:42;10.40;99.90
40952;DHT22;26682;51.660;19.338;2023-04-24T00:25:25;10.40;99.90
40952;DHT22;26682;51.660;19.338;2023-04-24T00:28:07;10.50;99.90
40952;DHT22;26682;51.660;19.338;2023-04-24T00:30:50;10.50;99.90
40952;DHT22;26682;51.660;19.338;2023-04-24T00:33:34;10.60;99.90
40952;DHT22;26682;51.660;19.338;2023-04-24T00:36:17;10.60;99.90
40952;DHT22;26682;51.660;19.338;2023-04-24T00:39:01;10.60;99.90
40952;DHT22;26682;51.660;19.338;2023-04-24T00:41:45;10.60;99.90
40952;DHT22;26682;51.660;19.338;2023-04-24T00:44:28;10.60;99.90
40952;DHT22;26682;51.660;19.338;2023-04-24T00:47:12;10.60;99.90
40952;DHT22;26682;51.660;19.338;2023-04-24T00:49:55;10.70;99.90
40952;DHT22;26682;51.660;19.338;2023-04-24T00:52:37;10.60;99.90
40952;DHT22;26682;51.660;19.338;2023-04-24T00:55:24;10.60;99.90
40952;DHT22;26682;51.660;19.338;2023-04-24T00:58:08;10.70;99.90
40952;DHT22;26682;51.660;19.338;2023-04-24T01:00:50;10.70;99.90
40952;DHT22;26682;51.660;19.338;2023-04-24T01:03:35;10.70;99.90
40952;DHT22;26682;51.660;19.338;2023-04-24T01:06:19;10.70;99.90
40952;DHT22;26682;51.660;19.338;2023-04-24T01:09:02;10.70;99.90
40952;DHT22;26682;51.660;19.338;2023-04-24T01:11:45;10.70;99.90
40952;DHT22;26682;51.660;19.338;2023-04-24T01:14:28;10.70;99.90
40952;DHT22;26682;51.660;19.338;2023-04-24T01:17:11;10.70;99.90
40952;DHT22;26682;51.660;19.338;2023-04-24T01:19:54;10.70;99.90
40952;DHT22;26682;51.660;19.338;2023-04-24T01:22:38;10.70;99.90
40952;DHT22;26682;51.660;19.338;2023-04-24T01:25:22;10.70;99.90
40952;DHT22;26682;51.660;19.338;2023-04-24T01:28:04;10.70;99.90
40952;DHT22;26682;51.660;19.338;2023-04-24T01:30:47;10.70;99.90
40952;DHT22;26682;51.660;19.338;2023-04-24T01:33:29;10.70;99.90
40952;DHT22;26682;51.660;19.338;2023-04-24T01:36:12;10.80;99.90
40952;DHT22;26682;51.660;19.338;2023-04-24T01:38:55;10.80;99.90
40952;DHT22;26682;51.660;19.338;2023-04-24T01:41:41;10.90;99.90
40952;DHT22;26682;51.660;19.338;2023-04-24T01:44:27;10.90;99.90
40952;DHT22;26682;51.660;19.338;2023-04-24T01:47:10;10.90;99.90
40952;DHT22;26682;51.660;19.338;2023-04-24T01:49:54;10.90;99.90
40952;DHT22;26682;51.660;19.338;2023-04-24T01:52:37;10.90;99.90
40952;DHT22;26682;51.660;19.338;2023-04-24T01:55:19;10.90;99.90
40952;DHT22;26682;51.660;19.338;2023-04-24T01:58:02;10.90;99.90
40952;DHT22;26682;51.660;19.338;2023-04-24T02:00:45;11.00;99.90
40952;DHT22;26682;51.660;19.338;2023-04-24T02:03:29;11.00;99.90
40952;DHT22;26682;51.660;19.338;2023-04-24T02:06:13;10.90;99.90
40952;DHT22;26682;51.660;19.338;2023-04-24T02:08:55;10.90;99.90
40952;DHT22;26682;51.660;19.338;2023-04-24T02:11:37;10.90;99.90
40952;DHT22;26682;51.660;19.338;2023-04-24T02:14:20;10.80;99.90
40952;DHT22;26682;51.660;19.338;2023-04-24T02:17:02;10.90;99.90
40952;DHT22;26682;51.660;19.338;2023-04-24T02:19:45;10.80;99.90
40952;DHT22;26682;51.660;19.338;2023-04-24T02:22:28;10.80;99.90
40952;DHT22;26682;51.660;19.338;2023-04-24T02:25:10;10.70;99.90
40952;DHT22;26682;51.660;19.338;2023-04-24T02:27:53;10.70;99.90
40952;DHT22;26682;51.660;19.338;2023-04-24T02:30:35;10.70;99.90
40952;DHT22;26682;51.660;19.338;2023-04-24T02:33:18;10.70;99.90
40952;DHT22;26682;51.660;19.338;2023-04-24T02:36:01;10.70;99.90
40952;DHT22;26682;51.660;19.338;2023-04-24T02:38:45;10.70;99.90
40952;DHT22;26682;51.660;19.338;2023-04-24T02:41:29;10.70;99.90
40952;DHT22;26682;51.660;19.338;2023-04-24T02:44:15;10.70;99.90
40952;DHT22;26682;51.660;19.338;2023-04-24T02:47:02;10.60;99.90
40952;DHT22;26682;51.660;19.338;2023-04-24T02:49:45;10.70;99.90
40952;DHT22;26682;51.660;19.338;2023-04-24T02:52:29;10.60;99.90
40952;DHT22;26682;51.660;19.338;2023-04-24T02:55:16;10.60;99.90
40952;DHT22;26682;51.660;19.338;2023-04-24T02:57:59;10.60;99.90
40952;DHT22;26682;51.660;19.338;2023-04-24T03:00:42;10.50;99.90
40952;DHT22;26682;51.660;19.338;2023-04-24T03:03:28;10.50;99.90
40952;DHT22;26682;51.660;19.338;2023-04-24T03:06:12;10.50;99.90
40952;DHT22;26682;51.660;19.338;2023-04-24T03:08:55;10.50;99.90
40952;DHT22;26682;51.660;19.338;2023-04-24T03:11:40;10.50;99.90
40952;DHT22;26682;51.660;19.338;2023-04-24T03:14:24;10.50;99.90
40952;DHT22;26682;51.660;19.338;2023-04-24T03:17:12;10.50;99.90
40952;DHT22;26682;51.660;19.338;2023-04-24T03:19:56;10.50;99.90
40952;DHT22;26682;51.660;19.338;2023-04-24T03:22:39;10.60;99.90
40952;DHT22;26682;51.660;19.338;2023-04-24T03:25:22;10.60;99.90
40952;DHT22;26682;51.660;19.338;2023-04-24T03:28:09;10.70;99.90
40952;DHT22;26682;51.660;19.338;2023-04-24T03:30:57;10.80;99.90
40952;DHT22;26682;51.660;19.338;2023-04-24T03:33:45;10.80;99.90
40952;DHT22;26682;51.660;19.338;2023-04-24T03:36:29;10.80;99.90
40952;DHT22;26682;51.660;19.338;2023-04-24T03:39:12;10.90;99.90
40952;DHT22;26682;51.660;19.338;2023-04-24T03:42:03;10.90;99.90
40952;DHT22;26682;51.660;19.338;2023-04-24T03:44:57;11.00;99.90
40952;DHT22;26682;51.660;19.338;2023-04-24T03:47:45;10.90;99.90
40952;DHT22;26682;51.660;19.338;2023-04-24T03:50:27;10.90;99.90
40952;DHT22;26682;51.660;19.338;2023-04-24T03:53:12;11.00;99.90
40952;DHT22;26682;51.660;19.338;2023-04-24T03:55:56;11.00;99.90
40952;DHT22;26682;51.660;19.338;2023-04-24T03:58:40;11.00;99.90
40952;DHT22;26682;51.660;19.338;2023-04-24T04:01:24;11.00;99.90
40952;DHT22;26682;51.660;19.338;2023-04-24T04:04:14;11.10;99.90
40952;DHT22;26682;51.660;19.338;2023-04-24T04:06:59;11.10;99.90
40952;DHT22;26682;51.660;19.338;2023-04-24T04:09:45;11.20;99.90
40952;DHT22;26682;51.660;19.338;2023-04-24T04:12:28;11.20;99.90
40952;DHT22;26682;51.660;19.338;2023-04-24T04:15:10;11.30;99.90
40952;DHT22;26682;51.660;19.338;2023-04-24T04:17:53;11.30;99.90
40952;DHT22;26682;51.660;19.338;2023-04-24T04:20:36;11.40;99.90
40952;DHT22;26682;51.660;19.338;2023-04-24T04:23:19;11.50;99.90
40952;DHT22;26682;51.660;19.338;2023-04-24T04:26:38;11.60;99.90
40952;DHT22;26682;51.660;19.338;2023-04-24T04:29:24;11.70;99.90
40952;DHT22;26682;51.660;19.338;2023-04-24T04:32:08;11.90;99.90
40952;DHT22;26682;51.660;19.338;2023-04-24T04:34:51;12.00;99.90
40952;DHT22;26682;51.660;19.338;2023-04-24T04:37:37;12.20;99.90
40952;DHT22;26682;51.660;19.338;2023-04-24T04:40:43;12.50;99.90
40952;DHT22;26682;51.660;19.338;2023-04-24T04:43:28;12.90;99.90
40952;DHT22;26682;51.660;19.338;2023-04-24T04:46:14;13.40;99.90
40952;DHT22;26682;51.660;19.338;2023-04-24T04:49:11;13.90;99.90
40952;DHT22;26682;51.660;19.338;2023-04-24T04:51:55;14.40;99.90
40952;DHT22;26682;51.660;19.338;2023-04-24T04:54:40;14.80;99.90
40952;DHT22;26682;51.660;19.338;2023-04-24T04:57:24;15.20;99.90
40952;DHT22;26682;51.660;19.338;2023-04-24T05:00:09;15.70;99.90
40952;DHT22;26682;51.660;19.338;2023-04-24T05:03:01;16.20;99.90
40952;DHT22;26682;51.660;19.338;2023-04-24T05:06:03;16.60;99.90
40952;DHT22;26682;51.660;19.338;2023-04-24T05:08:52;16.90;99.90
40952;DHT22;26682;51.660;19.338;2023-04-24T05:11:48;17.30;99.90
40952;DHT22;26682;51.660;19.338;2023-04-24T05:14:32;17.60;99.90
40952;DHT22;26682;51.660;19.338;2023-04-24T05:17:16;17.80;99.90
40952;DHT22;26682;51.660;19.338;2023-04-24T05:20:00;18.20;99.90
40952;DHT22;26682;51.660;19.338;2023-04-24T05:22:44;18.50;99.90
40952;DHT22;26682;51.660;19.338;2023-04-24T05:25:28;18.70;98.00
40952;DHT22;26682;51.660;19.338;2023-04-24T05:28:19;18.80;94.90
40952;DHT22;26682;51.660;19.338;2023-04-24T05:31:11;19.00;94.90
40952;DHT22;26682;51.660;19.338;2023-04-24T05:33:54;19.30;93.50
40952;DHT22;26682;51.660;19.338;2023-04-24T05:36:37;19.40;91.50
40952;DHT22;26682;51.660;19.338;2023-04-24T05:39:22;19.50;91.20
40952;DHT22;26682;51.660;19.338;2023-04-24T05:42:04;19.50;90.90
40952;DHT22;26682;51.660;19.338;2023-04-24T05:44:47;19.60;91.90
40952;DHT22;26682;51.660;19.338;2023-04-24T05:47:31;19.80;91.10
40952;DHT22;26682;51.660;19.338;2023-04-24T05:50:14;20.00;90.10
40952;DHT22;26682;51.660;19.338;2023-04-24T05:52:57;20.00;90.50
40952;DHT22;26682;51.660;19.338;2023-04-24T05:55:48;20.10;89.50
40952;DHT22;26682;51.660;19.338;2023-04-24T05:58:32;20.20;90.10
40952;DHT22;26682;51.660;19.338;2023-04-24T06:01:14;20.20;86.90
40952;DHT22;26682;51.660;19.338;2023-04-24T06:03:59;20.10;88.30
40952;DHT22;26682;51.660;19.338;2023-04-24T06:06:42;20.10;87.50
40952;DHT22;26682;51.660;19.338;2023-04-24T06:09:31;19.90;86.80
40952;DHT22;26682;51.660;19.338;2023-04-24T06:12:14;19.70;88.00
40952;DHT22;26682;51.660;19.338;2023-04-24T06:15:17;19.70;86.20
40952;DHT22;26682;51.660;19.338;2023-04-24T06:18:10;19.80;86.90
40952;DHT22;26682;51.660;19.338;2023-04-24T06:20:53;19.90;85.50
40952;DHT22;26682;51.660;19.338;2023-04-24T06:23:38;20.10;85.70
40952;DHT22;26682;51.660;19.338;2023-04-24T06:26:20;20.30;84.20
40952;DHT22;26682;51.660;19.338;2023-04-24T06:29:05;20.20;99.90
40952;DHT22;26682;51.660;19.338;2023-04-24T06:31:50;20.10;99.90
40952;DHT22;26682;51.660;19.338;2023-04-24T06:34:33;20.20;99.90
40952;DHT22;26682;51.660;19.338;2023-04-24T06:37:16;20.20;99.90
40952;DHT22;26682;51.660;19.338;2023-04-24T06:39:59;20.00;99.90
40952;DHT22;26682;51.660;19.338;2023-04-24T06:42:41;19.80;99.90
40952;DHT22;26682;51.660;19.338;2023-04-24T06:45:24;19.80;99.90
40952;DHT22;26682;51.660;19.338;2023-04-24T06:48:07;19.80;99.90
40952;DHT22;26682;51.660;19.338;2023-04-24T06:50:49;19.80;99.90
40952;DHT22;26682;51.660;19.338;2023-04-24T06:53:32;19.60;99.90
40952;DHT22;26682;51.660;19.338;2023-04-24T06:56:14;19.60;99.90
40952;DHT22;26682;51.660;19.338;2023-04-24T06:58:57;19.60;99.90
40952;DHT22;26682;51.660;19.338;2023-04-24T07:01:39;19.70;99.90
40952;DHT22;26682;51.660;19.338;2023-04-24T07:04:22;19.70;99.90
40952;DHT22;26682;51.660;19.338;2023-04-24T07:07:05;19.70;99.90
40952;DHT22;26682;51.660;19.338;2023-04-24T07:09:49;19.80;99.90
40952;DHT22;26682;51.660;19.338;2023-04-24T07:12:32;19.70;99.90
40952;DHT22;26682;51.660;19.338;2023-04-24T07:15:15;19.90;99.90
40952;DHT22;26682;51.660;19.338;2023-04-24T07:17:58;20.00;56.70
40952;DHT22;26682;51.660;19.338;2023-04-24T07:20:40;20.10;1.00
40952;DHT22;26682;51.660;19.338;2023-04-24T07:23:23;20.20;1.00
40952;DHT22;26682;51.660;19.338;2023-04-24T07:26:06;20.40;99.90
40952;DHT22;26682;51.660;19.338;2023-04-24T07:28:49;20.60;99.90
40952;DHT22;26682;51.660;19.338;2023-04-24T07:31:31;20.80;99.90
40952;DHT22;26682;51.660;19.338;2023-04-24T07:34:14;21.00;1.00
40952;DHT22;26682;51.660;19.338;2023-04-24T07:36:56;21.20;1.00
40952;DHT22;26682;51.660;19.338;2023-04-24T07:39:39;21.40;1.00
40952;DHT22;26682;51.660;19.338;2023-04-24T07:42:21;21.50;1.00
40952;DHT22;26682;51.660;19.338;2023-04-24T07:45:04;21.70;99.90
40952;DHT22;26682;51.660;19.338;2023-04-24T07:47:47;21.80;99.90
40952;DHT22;26682;51.660;19.338;2023-04-24T07:50:30;21.90;99.90
40952;DHT22;26682;51.660;19.338;2023-04-24T07:53:12;22.00;1.00
40952;DHT22;26682;51.660;19.338;2023-04-24T07:55:56;22.10;1.00
40952;DHT22;26682;51.660;19.338;2023-04-24T07:58:38;22.00;1.00
40952;DHT22;26682;51.660;19.338;2023-04-24T08:01:21;22.00;1.00
40952;DHT22;26682;51.660;19.338;2023-04-24T08:04:03;22.10;1.00
40952;DHT22;26682;51.660;19.338;2023-04-24T08:06:47;22.20;1.00
40952;DHT22;26682;51.660;19.338;2023-04-24T08:09:30;22.20;1.00
40952;DHT22;26682;51.660;19.338;2023-04-24T08:12:12;22.10;1.00
40952;DHT22;26682;51.660;19.338;2023-04-24T08:14:54;22.10;1.00
40952;DHT22;26682;51.660;19.338;2023-04-24T08:17:37;22.20;1.00
40952;DHT22;26682;51.660;19.338;2023-04-24T08:20:20;22.20;1.00
40952;DHT22;26682;51.660;19.338;2023-04-24T08:23:02;22.30;1.00
40952;DHT22;26682;51.660;19.338;2023-04-24T08:25:45;22.20;99.90
40952;DHT22;26682;51.660;19.338;2023-04-24T08:28:27;22.20;99.90
40952;DHT22;26682;51.660;19.338;2023-04-24T08:31:09;22.20;99.90
40952;DHT22;26682;51.660;19.338;2023-04-24T08:33:52;22.40;99.90
40952;DHT22;26682;51.660;19.338;2023-04-24T08:36:35;22.50;99.90
40952;DHT22;26682;51.660;19.338;2023-04-24T08:39:28;22.60;99.90
40952;DHT22;26682;51.660;19.338;2023-04-24T08:42:11;22.50;99.90
40952;DHT22;26682;51.660;19.338;2023-04-24T08:44:55;22.40;99.90
40952;DHT22;26682;51.660;19.338;2023-04-24T08:47:39;22.40;99.90
40952;DHT22;26682;51.660;19.338;2023-04-24T08:50:22;22.40;99.90
40952;DHT22;26682;51.660;19.338;2023-04-24T08:53:06;22.40;99.90
40952;DHT22;26682;51.660;19.338;2023-04-24T08:55:49;22.40;99.90
40952;DHT22;26682;51.660;19.338;2023-04-24T08:58:33;22.50;99.90
40952;DHT22;26682;51.660;19.338;2023-04-24T09:01:19;22.80;99.90
40952;DHT22;26682;51.660;19.338;2023-04-24T09:04:03;22.80;99.90
40952;DHT22;26682;51.660;19.338;2023-04-24T09:06:48;22.90;99.90
40952;DHT22;26682;51.660;19.338;2023-04-24T09:09:32;22.80;99.90
40952;DHT22;26682;51.660;19.338;2023-04-24T09:12:15;22.70;99.90
40952;DHT22;26682;51.660;19.338;2023-04-24T09:14:58;22.80;99.90
40952;DHT22;26682;51.660;19.338;2023-04-24T09:17:41;22.90;99.90
40952;DHT22;26682;51.660;19.338;2023-04-24T09:20:23;22.80;99.90
40952;DHT22;26682;51.660;19.338;2023-04-24T09:23:06;22.80;99.90
40952;DHT22;26682;51.660;19.338;2023-04-24T09:25:54;23.00;99.90
40952;DHT22;26682;51.660;19.338;2023-04-24T09:28:39;23.00;99.90
40952;DHT22;26682;51.660;19.338;2023-04-24T09:31:21;22.90;99.90
40952;DHT22;26682;51.660;19.338;2023-04-24T09:34:05;22.90;99.90
40952;DHT22;26682;51.660;19.338;2023-04-24T09:36:50;23.00;99.90
40952;DHT22;26682;51.660;19.338;2023-04-24T09:39:33;23.10;99.90
40952;DHT22;26682;51.660;19.338;2023-04-24T09:42:16;23.10;99.90
40952;DHT22;26682;51.660;19.338;2023-04-24T09:44:58;23.10;99.90
40952;DHT22;26682;51.660;19.338;2023-04-24T09:47:55;23.00;99.90
40952;DHT22;26682;51.660;19.338;2023-04-24T09:50:38;23.00;99.90
40952;DHT22;26682;51.660;19.338;2023-04-24T09:53:25;22.90;99.90
40952;DHT22;26682;51.660;19.338;2023-04-24T09:56:09;22.80;99.90
40952;DHT22;26682;51.660;19.338;2023-04-24T09:58:51;22.80;99.90
40952;DHT22;26682;51.660;19.338;2023-04-24T10:01:34;22.80;99.90
40952;DHT22;26682;51.660;19.338;2023-04-24T10:04:24;22.50;99.90
40952;DHT22;26682;51.660;19.338;2023-04-24T10:07:08;22.30;99.90
40952;DHT22;26682;51.660;19.338;2023-04-24T10:09:52;22.50;99.90
40952;DHT22;26682;51.660;19.338;2023-04-24T10:12:35;22.60;99.90
40952;DHT22;26682;51.660;19.338;2023-04-24T10:15:17;22.60;99.20
40952;DHT22;26682;51.660;19.338;2023-04-24T10:18:04;22.80;99.90
40952;DHT22;26682;51.660;19.338;2023-04-24T10:20:48;23.20;99.90
40952;DHT22;26682;51.660;19.338;2023-04-24T10:23:31;23.10;99.90
40952;DHT22;26682;51.660;19.338;2023-04-24T10:26:14;23.30;99.90
40952;DHT22;26682;51.660;19.338;2023-04-24T10:28:59;23.20;98.80
40952;DHT22;26682;51.660;19.338;2023-04-24T10:31:43;23.20;99.80
40952;DHT22;26682;51.660;19.338;2023-04-24T10:34:28;23.30;98.80
40952;DHT22;26682;51.660;19.338;2023-04-24T10:37:11;23.00;96.10
40952;DHT22;26682;51.660;19.338;2023-04-24T10:39:55;22.90;93.30
40952;DHT22;26682;51.660;19.338;2023-04-24T10:42:41;22.80;95.10
40952;DHT22;26682;51.660;19.338;2023-04-24T10:45:25;22.90;94.60
40952;DHT22;26682;51.660;19.338;2023-04-24T10:48:08;22.80;94.90
40952;DHT22;26682;51.660;19.338;2023-04-24T10:50:56;22.90;94.60
40952;DHT22;26682;51.660;19.338;2023-04-24T10:53:38;23.00;93.60
40952;DHT22;26682;51.660;19.338;2023-04-24T10:56:21;22.60;93.30
40952;DHT22;26682;51.660;19.338;2023-04-24T10:59:07;22.40;94.60
40952;DHT22;26682;51.660;19.338;2023-04-24T11:01:55;22.20;93.60
40952;DHT22;26682;51.660;19.338;2023-04-24T11:04:37;22.30;93.60
40952;DHT22;26682;51.660;19.338;2023-04-24T11:07:20;22.40;95.20
40952;DHT22;26682;51.660;19.338;2023-04-24T11:10:03;22.40;94.40
40952;DHT22;26682;51.660;19.338;2023-04-24T11:12:46;22.30;94.30
40952;DHT22;26682;51.660;19.338;2023-04-24T11:15:28;22.30;95.30
40952;DHT22;26682;51.660;19.338;2023-04-24T11:18:15;22.20;93.10
40952;DHT22;26682;51.660;19.338;2023-04-24T11:20:57;22.20;94.90
40952;DHT22;26682;51.660;19.338;2023-04-24T11:23:41;21.90;93.00
40952;DHT22;26682;51.660;19.338;2023-04-24T11:26:24;21.90;92.30
40952;DHT22;26682;51.660;19.338;2023-04-24T11:29:12;22.00;94.10
40952;DHT22;26682;51.660;19.338;2023-04-24T11:31:54;22.00;92.30
40952;DHT22;26682;51.660;19.338;2023-04-24T11:34:39;21.90;92.20
40952;DHT22;26682;51.660;19.338;2023-04-24T11:37:24;21.80;89.10
40952;DHT22;26682;51.660;19.338;2023-04-24T11:40:10;21.70;90.10
40952;DHT22;26682;51.660;19.338;2023-04-24T11:42:53;21.80;91.40
40952;DHT22;26682;51.660;19.338;2023-04-24T11:45:37;22.00;90.30
40952;DHT22;26682;51.660;19.338;2023-04-24T11:48:20;22.30;91.60
40952;DHT22;26682;51.660;19.338;2023-04-24T11:51:05;22.30;92.00
40952;DHT22;26682;51.660;19.338;2023-04-24T11:53:48;22.20;92.00
40952;DHT22;26682;51.660;19.338;2023-04-24T11:56:47;22.40;91.30
40952;DHT22;26682;51.660;19.338;2023-04-24T11:59:29;22.50;91.20
40952;DHT22;26682;51.660;19.338;2023-04-24T12:02:25;22.70;92.20
40952;DHT22;26682;51.660;19.338;2023-04-24T12:05:08;22.80;91.80
40952;DHT22;26682;51.660;19.338;2023-04-24T12:07:52;23.00;92.90
40952;DHT22;26682;51.660;19.338;2023-04-24T12:10:35;22.90;88.00
40952;DHT22;26682;51.660;19.338;2023-04-24T12:13:18;22.80;90.60
40952;DHT22;26682;51.660;19.338;2023-04-24T12:16:04;22.50;87.40
40952;DHT22;26682;51.660;19.338;2023-04-24T12:18:47;22.10;84.90
40952;DHT22;26682;51.660;19.338;2023-04-24T12:21:29;22.00;83.90
40952;DHT22;26682;51.660;19.338;2023-04-24T12:24:14;21.80;81.30
40952;DHT22;26682;51.660;19.338;2023-04-24T12:26:57;21.70;84.10
40952;DHT22;26682;51.660;19.338;2023-04-24T12:29:58;21.80;83.50
40952;DHT22;26682;51.660;19.338;2023-04-24T12:32:46;22.00;84.90
40952;DHT22;26682;51.660;19.338;2023-04-24T12:35:32;22.10;81.60
40952;DHT22;26682;51.660;19.338;2023-04-24T12:38:16;22.40;87.60
40952;DHT22;26682;51.660;19.338;2023-04-24T12:41:04;22.60;83.20
40952;DHT22;26682;51.660;19.338;2023-04-24T12:43:53;22.70;85.90
40952;DHT22;26682;51.660;19.338;2023-04-24T12:46:37;22.50;84.50
40952;DHT22;26682;51.660;19.338;2023-04-24T12:49:19;22.20;84.80
40952;DHT22;26682;51.660;19.338;2023-04-24T12:52:03;22.20;85.90
40952;DHT22;26682;51.660;19.338;2023-04-24T12:54:49;21.90;84.60
40952;DHT22;26682;51.660;19.338;2023-04-24T12:57:32;21.90;82.80
40952;DHT22;26682;51.660;19.338;2023-04-24T13:00:14;22.00;84.60
40952;DHT22;26682;51.660;19.338;2023-04-24T13:03:01;22.00;85.40
40952;DHT22;26682;51.660;19.338;2023-04-24T13:05:44;21.90;80.00
40952;DHT22;26682;51.660;19.338;2023-04-24T13:08:27;22.00;89.60
40952;DHT22;26682;51.660;19.338;2023-04-24T13:11:09;22.00;78.80
40952;DHT22;26682;51.660;19.338;2023-04-24T13:13:52;22.00;77.10
40952;DHT22;26682;51.660;19.338;2023-04-24T13:16:37;21.90;75.30
40952;DHT22;26682;51.660;19.338;2023-04-24T13:19:20;21.70;74.50
40952;DHT22;26682;51.660;19.338;2023-04-24T13:22:03;21.70;74.20
40952;DHT22;26682;51.660;19.338;2023-04-24T13:24:47;21.70;74.00
40952;DHT22;26682;51.660;19.338;2023-04-24T13:27:32;21.60;72.00
40952;DHT22;26682;51.660;19.338;2023-04-24T13:30:15;21.40;71.70
40952;DHT22;26682;51.660;19.338;2023-04-24T13:32:58;21.20;72.00
40952;DHT22;26682;51.660;19.338;2023-04-24T13:35:41;21.20;70.60
40952;DHT22;26682;51.660;19.338;2023-04-24T13:38:23;21.20;86.20
40952;DHT22;26682;51.660;19.338;2023-04-24T13:41:06;21.10;91.00
40952;DHT22;26682;51.660;19.338;2023-04-24T13:43:48;21.10;92.50
40952;DHT22;26682;51.660;19.338;2023-04-24T13:46:31;21.20;92.10
40952;DHT22;26682;51.660;19.338;2023-04-24T13:49:14;21.30;92.30
40952;DHT22;26682;51.660;19.338;2023-04-24T13:51:57;21.40;95.80
40952;DHT22;26682;51.660;19.338;2023-04-24T13:54:39;21.30;93.80
40952;DHT22;26682;51.660;19.338;2023-04-24T13:57:22;21.40;94.00
40952;DHT22;26682;51.660;19.338;2023-04-24T14:00:05;21.40;93.00
40952;DHT22;26682;51.660;19.338;2023-04-24T14:02:53;21.60;94.00
40952;DHT22;26682;51.660;19.338;2023-04-24T14:05:35;21.80;94.00
40952;DHT22;26682;51.660;19.338;2023-04-24T14:08:20;21.90;94.20
40952;DHT22;26682;51.660;19.338;2023-04-24T14:11:02;22.00;95.10
40952;DHT22;26682;51.660;19.338;2023-04-24T14:13:46;22.10;96.00
40952;DHT22;26682;51.660;19.338;2023-04-24T14:16:28;22.10;95.70
40952;DHT22;26682;51.660;19.338;2023-04-24T14:19:11;21.90;93.70
40952;DHT22;26682;51.660;19.338;2023-04-24T14:21:55;21.60;93.20
40952;DHT22;26682;51.660;19.338;2023-04-24T14:24:40;21.50;92.00
40952;DHT22;26682;51.660;19.338;2023-04-24T14:27:24;21.60;93.60
40952;DHT22;26682;51.660;19.338;2023-04-24T14:30:08;21.30;98.60
40952;DHT22;26682;51.660;19.338;2023-04-24T14:32:50;21.30;93.60
40952;DHT22;26682;51.660;19.338;2023-04-24T14:35:33;21.30;93.20
40952;DHT22;26682;51.660;19.338;2023-04-24T14:38:17;21.10;93.80
40952;DHT22;26682;51.660;19.338;2023-04-24T14:40:59;21.00;94.10
40952;DHT22;26682;51.660;19.338;2023-04-24T14:43:44;20.70;94.00
40952;DHT22;26682;51.660;19.338;2023-04-24T14:46:29;20.60;94.70
40952;DHT22;26682;51.660;19.338;2023-04-24T14:49:15;20.60;93.80
40952;DHT22;26682;51.660;19.338;2023-04-24T14:51:57;20.60;94.80
40952;DHT22;26682;51.660;19.338;2023-04-24T14:54:40;20.70;95.20
40952;DHT22;26682;51.660;19.338;2023-04-24T14:57:22;20.80;96.30
40952;DHT22;26682;51.660;19.338;2023-04-24T15:00:08;20.80;99.90
40952;DHT22;26682;51.660;19.338;2023-04-24T15:02:52;20.60;95.20
40952;DHT22;26682;51.660;19.338;2023-04-24T15:05:35;20.60;95.80
40952;DHT22;26682;51.660;19.338;2023-04-24T15:08:19;20.50;97.30
40952;DHT22;26682;51.660;19.338;2023-04-24T15:11:30;20.30;97.60
40952;DHT22;26682;51.660;19.338;2023-04-24T15:14:12;20.30;97.90
40952;DHT22;26682;51.660;19.338;2023-04-24T15:16:54;20.40;98.30
40952;DHT22;26682;51.660;19.338;2023-04-24T15:19:37;20.30;98.50
40952;DHT22;26682;51.660;19.338;2023-04-24T15:22:19;20.20;98.70
40952;DHT22;26682;51.660;19.338;2023-04-24T15:25:02;20.00;99.30
40952;DHT22;26682;51.660;19.338;2023-04-24T15:27:46;19.90;98.90
40952;DHT22;26682;51.660;19.338;2023-04-24T15:30:29;20.00;99.30
40952;DHT22;26682;51.660;19.338;2023-04-24T15:33:11;20.00;99.90
40952;DHT22;26682;51.660;19.338;2023-04-24T15:35:54;20.00;99.90
40952;DHT22;26682;51.660;19.338;2023-04-24T15:38:37;20.00;99.90
40952;DHT22;26682;51.660;19.338;2023-04-24T15:41:20;19.60;99.90
40952;DHT22;26682;51.660;19.338;2023-04-24T15:44:04;19.40;99.90
40952;DHT22;26682;51.660;19.338;2023-04-24T15:46:47;19.20;99.90
40952;DHT22;26682;51.660;19.338;2023-04-24T15:49:31;19.30;99.90
40952;DHT22;26682;51.660;19.338;2023-04-24T15:52:14;19.20;99.90
40952;DHT22;26682;51.660;19.338;2023-04-24T15:54:57;19.10;99.90
40952;DHT22;26682;51.660;19.338;2023-04-24T15:57:41;18.90;99.90
40952;DHT22;26682;51.660;19.338;2023-04-24T16:00:24;18.80;99.90
40952;DHT22;26682;51.660;19.338;2023-04-24T16:03:08;18.80;99.90
40952;DHT22;26682;51.660;19.338;2023-04-24T16:05:55;18.70;99.90
40952;DHT22;26682;51.660;19.338;2023-04-24T16:08:41;18.50;99.90
40952;DHT22;26682;51.660;19.338;2023-04-24T16:11:25;18.40;99.90
40952;DHT22;26682;51.660;19.338;2023-04-24T16:14:09;18.30;99.90
40952;DHT22;26682;51.660;19.338;2023-04-24T16:16:52;18.10;99.90
40952;DHT22;26682;51.660;19.338;2023-04-24T16:19:37;18.00;99.90
40952;DHT22;26682;51.660;19.338;2023-04-24T16:22:20;17.70;99.90
40952;DHT22;26682;51.660;19.338;2023-04-24T16:25:04;17.60;99.90
40952;DHT22;26682;51.660;19.338;2023-04-24T16:27:49;17.40;99.90
40952;DHT22;26682;51.660;19.338;2023-04-24T16:30:34;17.40;99.90
40952;DHT22;26682;51.660;19.338;2023-04-24T16:33:18;17.30;99.90
40952;DHT22;26682;51.660;19.338;2023-04-24T16:36:00;17.20;99.90
40952;DHT22;26682;51.660;19.338;2023-04-24T16:38:43;17.10;99.90
40952;DHT22;26682;51.660;19.338;2023-04-24T16:41:27;17.10;99.90
40952;DHT22;26682;51.660;19.338;2023-04-24T16:44:10;17.00;99.90
40952;DHT22;26682;51.660;19.338;2023-04-24T16:46:53;16.90;99.90
40952;DHT22;26682;51.660;19.338;2023-04-24T16:49:36;16.80;99.90
40952;DHT22;26682;51.660;19.338;2023-04-24T16:52:18;16.60;99.90
40952;DHT22;26682;51.660;19.338;2023-04-24T16:55:01;16.60;99.90
40952;DHT22;26682;51.660;19.338;2023-04-24T16:57:43;16.60;99.90
40952;DHT22;26682;51.660;19.338;2023-04-24T17:00:26;16.40;99.90
40952;DHT22;26682;51.660;19.338;2023-04-24T17:03:09;16.40;99.90